^^
Station Historical Data
Daily Summary for June 3, 2017 Units:  English    Metric   Both
« Previous Day
Next Day »
Daily Weekly Monthly Yearly Custom
  High: Low: Average:
Temperature: 72.7 °F 49.5 °F 65.7 °F
Dew Point: 48.1 °F 42.0 °F 44.6 °F
Humidity: 86% 35% 48%
Wind Speed: 5.0mph 0.0mph 1.6mph
Wind Gust: 15.0mph - -
Wind- - SSW
Pressure: 30.00 in 29.93 in -
Precipitation: 0.00 in    
Historical Graphs
 
 
Tabular Data for June 3, 2017
Time Temperature Dew Point Pressure Wind Wind Speed Wind Gust Humidity Rainfall Rate (Hourly) Conditions
00:00 59.1 °F 42.5 °F 29.97 in Calm   4.0 mph 54% 0.00 in CLR
00:15 57.7 °F 42.1 °F 29.97 in Calm   1.0 mph 56% 0.00 in CLR
00:30 57.4 °F 42.3 °F 29.97 in Calm     57% 0.00 in CLR
00:45 56.5 °F 42.3 °F 29.97 in Calm   1.0 mph 59% 0.00 in CLR
01:00 55.0 °F 43.0 °F 29.97 in Calm     64% 0.00 in CLR
02:15 51.7 °F 44.7 °F 29.97 in Calm     77% 0.00 in CLR
02:30 50.6 °F 44.7 °F 29.97 in Calm     80% 0.00 in CLR
02:45 50.1 °F 44.8 °F 29.97 in Calm     82% 0.00 in CLR
03:00 49.6 °F 45.3 °F 29.97 in Calm     85% 0.00 in CLR
03:15 49.5 °F 45.5 °F 29.97 in Calm     86% 0.00 in CLR
10:45 63.9 °F 45.9 °F 29.96 in NNE 3.0 mph 8.0 mph 52% 0.00 in CLR
11:00 65.2 °F 48.1 °F 29.96 in WNW 2.0 mph 10.0 mph 54% 0.00 in CLR
11:15 65.0 °F 47.0 °F 29.96 in North 5.0 mph 10.0 mph 52% 0.00 in SCT
11:30 65.8 °F 46.6 °F 29.96 in WNW 5.0 mph 12.0 mph 50% 0.00 in SCT
11:45 64.4 °F 45.9 °F 29.96 in North 5.0 mph 12.0 mph 51% 0.00 in SCT
12:00 64.9 °F 46.3 °F 29.96 in NW 5.0 mph 13.0 mph 51% 0.00 in SCT
12:30 65.8 °F 46.1 °F 29.97 in North 5.0 mph 14.0 mph 49% 0.00 in BKN
12:45 66.1 °F 46.4 °F 29.96 in NW 3.0 mph 14.0 mph 49% 0.00 in BKN
13:00 66.7 °F 45.8 °F 29.95 in North 3.0 mph 12.0 mph 47% 0.00 in BKN
13:15 67.5 °F 46.0 °F 29.95 in North 3.0 mph 9.0 mph 46% 0.00 in SCT
13:30 67.4 °F 46.5 °F 29.95 in NNE 1.0 mph 8.0 mph 47% 0.00 in SCT
13:45 67.7 °F 44.4 °F 29.95 in NNW 3.0 mph 9.0 mph 43% 0.00 in SCT
14:00 68.3 °F 45.5 °F 29.94 in WNW 3.0 mph 10.0 mph 44% 0.00 in SCT
14:15 68.3 °F 44.3 °F 29.94 in NNE 2.0 mph 10.0 mph 42% 0.00 in BKN
14:30 69.5 °F 44.1 °F 29.94 in North 1.0 mph 8.0 mph 40% 0.00 in BKN
14:45 70.0 °F 43.2 °F 29.94 in North 5.0 mph 10.0 mph 38% 0.00 in BKN
15:00 70.2 °F 44.1 °F 29.94 in NNW 2.0 mph 12.0 mph 39% 0.00 in BKN
15:15 70.6 °F 43.8 °F 29.94 in NW 2.0 mph 10.0 mph 38% 0.00 in BKN
15:30 70.9 °F 43.3 °F 29.94 in West 3.0 mph 13.0 mph 37% 0.00 in BKN
15:45 70.4 °F 44.2 °F 29.94 in NW 2.0 mph 10.0 mph 39% 0.00 in BKN
16:00 71.3 °F 43.7 °F 29.94 in West 2.0 mph 9.0 mph 37% 0.00 in BKN
16:15 71.7 °F 42.6 °F 29.93 in NNE 3.0 mph 9.0 mph 35% 0.00 in SCT
16:30 72.1 °F 44.4 °F 29.94 in NW 2.0 mph 12.0 mph 37% 0.00 in SCT
16:45 72.3 °F 43.1 °F 29.93 in North 2.0 mph 9.0 mph 35% 0.00 in SCT
17:00 72.7 °F 43.5 °F 29.93 in WNW 5.0 mph 9.0 mph 35% 0.00 in SCT
17:15 72.5 °F 44.0 °F 29.93 in SSE 3.0 mph 9.0 mph 36% 0.00 in SCT
17:30 71.0 °F 42.0 °F 29.94 in North 2.0 mph 14.0 mph 35% 0.00 in SCT
17:45 72.3 °F 44.6 °F 29.93 in South 3.0 mph 15.0 mph 37% 0.00 in SCT
18:00 72.4 °F 43.9 °F 29.93 in WSW 2.0 mph 9.0 mph 36% 0.00 in SCT
18:15 72.4 °F 43.9 °F 29.93 in WSW 2.0 mph 9.0 mph 36% 0.00 in FEW
18:30 72.6 °F 44.9 °F 29.94 in ENE 1.0 mph 8.0 mph 37% 0.00 in FEW
18:45 72.7 °F 44.9 °F 29.94 in West 2.0 mph 9.0 mph 37% 0.00 in FEW
19:00 72.4 °F 44.6 °F 29.95 in North 1.0 mph 12.0 mph 37% 0.00 in FEW
19:15 72.0 °F 45.0 °F 29.95 in NW 1.0 mph 8.0 mph 38% 0.00 in FEW
19:30 71.7 °F 44.7 °F 29.96 in Calm   8.0 mph 38% 0.00 in FEW
19:45 71.2 °F 44.9 °F 29.96 in South 2.0 mph 7.0 mph 39% 0.00 in FEW
20:00 69.8 °F 44.4 °F 29.97 in Calm   5.0 mph 40% 0.00 in FEW
20:15 68.5 °F 44.5 °F 29.97 in Calm   6.0 mph 42% 0.00 in CLR
20:30 67.7 °F 44.4 °F 29.97 in South 1.0 mph 5.0 mph 43% 0.00 in CLR
20:45 67.2 °F 44.5 °F 29.98 in Calm   6.0 mph 44% 0.00 in CLR
21:00 66.7 °F 44.7 °F 29.98 in Calm   2.0 mph 45% 0.00 in CLR
21:15 66.2 °F 44.8 °F 29.98 in Calm   3.0 mph 46% 0.00 in CLR
21:30 65.5 °F 44.7 °F 29.99 in Calm   2.0 mph 47% 0.00 in CLR
21:45 64.8 °F 45.1 °F 29.99 in Calm   1.0 mph 49% 0.00 in CLR
22:00 63.9 °F 44.3 °F 29.99 in Calm   1.0 mph 49% 0.00 in CLR
22:15 63.8 °F 44.3 °F 30.00 in Calm   2.0 mph 49% 0.00 in CLR
22:30 63.9 °F 44.4 °F 29.99 in Calm   3.0 mph 49% 0.00 in CLR
22:45 63.3 °F 44.9 °F 29.99 in Calm   1.0 mph 51% 0.00 in CLR
23:00 62.0 °F 44.7 °F 30.00 in Calm   1.0 mph 53% 0.00 in CLR
23:15 60.6 °F 44.3 °F 29.99 in Calm   1.0 mph 55% 0.00 in CLR
23:30 62.0 °F 44.7 °F 30.00 in Calm   4.0 mph 53% 0.00 in CLR
23:45 60.8 °F 45.9 °F 30.00 in Calm   1.0 mph 58% 0.00 in CLR
TarryTown NY Weather
Compliments of Weather Underground - 1.25 mb